Time;durP1;ratioP1;P1;durP2;ratioP2;P2;SDS_P1;SDS_P2;PMS_P1;PMS_P2;Temp;Humidity;BMP_temperature;BMP_pressure;BME280_temperature;BME280_humidity;BME280_pressure;Samples;Min_cycle;Max_cycle;Signal;HPM_P1;HPM_P2
2022/06/01 00:01:51;;;;;;;2.25;1.20;;;18.00;86.70;;;;;;5052054;28;20363;-62
2022/06/01 00:04:19;;;;;;;1.83;1.50;;;18.00;86.70;;;;;;5051276;28;20044;-62
2022/06/01 00:06:44;;;;;;;1.50;1.30;;;18.00;86.80;;;;;;5050893;28;20580;-62
2022/06/01 00:09:10;;;;;;;;;;;18.00;86.80;;;;;;5051880;28;20044;-62
2022/06/01 00:11:36;;;;;;;1.80;1.42;;;18.00;87.00;;;;;;5050942;28;19927;-62
2022/06/01 00:14:03;;;;;;;1.50;1.20;;;18.00;86.90;;;;;;5049370;28;20850;-62
2022/06/01 00:16:28;;;;;;;1.52;1.40;;;18.00;87.00;;;;;;5067401;28;20406;-61
2022/06/01 00:18:54;;;;;;;;;;;18.00;87.00;;;;;;5053220;28;20055;-62
2022/06/01 00:21:20;;;;;;;1.67;1.33;;;18.00;87.10;;;;;;5053158;28;19975;-62
2022/06/01 00:23:45;;;;;;;;;;;18.00;87.00;;;;;;5053132;28;20088;-62
2022/06/01 00:26:11;;;;;;;1.63;1.50;;;18.00;87.20;;;;;;5052360;28;19925;-62
2022/06/01 00:28:36;;;;;;;;;;;18.00;87.10;;;;;;5052626;28;20128;-62
2022/06/01 00:31:03;;;;;;;1.95;1.50;;;17.90;87.20;;;;;;5052698;28;19921;-62
2022/06/01 00:33:29;;;;;;;2.40;1.50;;;17.90;87.10;;;;;;5053312;28;20056;-62
2022/06/01 00:35:55;;;;;;;;;;;18.00;87.20;;;;;;5052438;28;20491;-62
2022/06/01 00:38:21;;;;;;;1.55;1.30;;;18.00;87.40;;;;;;5052870;28;19951;-62
2022/06/01 00:40:48;;;;;;;;;;;18.00;87.30;;;;;;5051436;28;20052;-62
2022/06/01 00:43:35;;;;;;;1.77;1.40;;;17.90;87.40;;;;;;5052489;28;19925;-62
2022/06/01 00:46:01;;;;;;;2.25;1.40;;;17.90;87.30;;;;;;5052244;28;20053;-62
2022/06/01 00:48:30;;;;;;;4.88;1.48;;;17.90;87.40;;;;;;5051845;28;20086;-62
2022/06/01 00:50:56;;;;;;;3.33;1.30;;;17.90;87.40;;;;;;5051057;28;20084;-62
2022/06/01 00:53:27;;;;;;;2.30;1.40;;;17.90;87.50;;;;;;5052662;28;20052;-62
2022/06/01 00:56:21;;;;;;;1.55;1.40;;;17.90;88.20;;;;;;5050702;28;20051;-62
2022/06/01 00:58:51;;;;;;;3.20;1.70;;;17.90;87.70;;;;;;5031379;28;20140;-62
2022/06/01 01:01:19;;;;;;;1.30;1.20;;;17.90;87.70;;;;;;5032975;28;20042;-62
2022/06/01 01:03:49;;;;;;;1.45;1.30;;;17.90;87.80;;;;;;5044192;28;20402;-62
2022/06/01 01:06:25;;;;;;;1.30;1.17;;;17.90;87.80;;;;;;5052173;28;20045;-62
2022/06/01 01:08:51;;;;;;;2.38;1.40;;;17.90;87.90;;;;;;5051503;28;20052;-62
2022/06/01 01:11:24;;;;;;;1.98;1.23;;;17.90;88.00;;;;;;5051415;28;20077;-62
2022/06/01 01:13:51;;;;;;;1.67;1.30;;;17.90;88.00;;;;;;5051672;28;20561;-62
2022/06/01 01:16:20;;;;;;;2.00;1.33;;;17.90;88.10;;;;;;5051764;28;20044;-62
2022/06/01 01:18:47;;;;;;;1.60;1.33;;;17.90;88.20;;;;;;5052365;28;20494;-62
2022/06/01 01:21:31;;;;;;;1.88;1.20;;;17.90;88.20;;;;;;5051479;28;20117;-62
2022/06/01 01:24:28;;;;;;;1.63;1.38;;;17.90;88.20;;;;;;5051276;28;20048;-62
2022/06/01 01:26:56;;;;;;;1.35;1.20;;;17.90;88.30;;;;;;5049946;28;20079;-62
2022/06/01 01:29:44;;;;;;;2.67;1.33;;;17.90;88.30;;;;;;5051581;28;20053;-61
2022/06/01 01:32:12;;;;;;;1.77;1.50;;;17.90;88.40;;;;;;5062150;28;20052;-62
2022/06/01 01:34:39;;;;;;;2.35;1.50;;;17.90;88.40;;;;;;5050902;28;20056;-62
2022/06/01 01:37:17;;;;;;;2.65;1.70;;;17.90;88.40;;;;;;5051373;28;20048;-62
2022/06/01 01:39:44;;;;;;;1.95;1.40;;;17.90;88.50;;;;;;5051352;28;20076;-62
2022/06/01 01:42:09;;;;;;;2.50;1.40;;;17.90;88.60;;;;;;5049450;28;20052;-62
2022/06/01 01:44:54;;;;;;;;;;;17.90;88.60;;;;;;5052307;28;20632;-61
2022/06/01 01:47:20;;;;;;;2.25;1.40;;;17.90;88.60;;;;;;5051892;28;19962;-61
2022/06/01 01:49:45;;;;;;;;;;;17.90;88.60;;;;;;5052106;28;20045;-62
2022/06/01 01:52:16;;;;;;;2.20;1.40;;;17.90;88.70;;;;;;5051063;28;19917;-62
2022/06/01 01:54:48;;;;;;;1.50;1.40;;;17.90;88.60;;;;;;5051186;28;20093;-62
2022/06/01 01:57:35;;;;;;;1.92;1.65;;;17.90;88.60;;;;;;5049739;28;20084;-61
2022/06/01 02:00:00;;;;;;;;;;;17.90;88.70;;;;;;5051066;28;20498;-62
2022/06/01 02:02:54;;;;;;;1.92;1.55;;;17.90;88.80;;;;;;5051106;28;19924;-62
2022/06/01 02:08:34;;;;;;;2.53;1.60;;;17.90;88.80;;;;;;5051116;28;20053;-62
2022/06/01 02:14:31;;;;;;;2.75;1.45;;;17.90;88.90;;;;;;5050532;28;20099;-62
2022/06/01 02:17:06;;;;;;;1.83;1.45;;;17.90;88.90;;;;;;5050975;28;20505;-62
2022/06/01 02:19:42;;;;;;;1.48;1.20;;;17.90;89.00;;;;;;5051203;28;20103;-62
2022/06/01 02:22:10;;;;;;;1.70;1.40;;;17.90;89.10;;;;;;5049885;28;20072;-62
2022/06/01 02:24:37;;;;;;;1.75;1.30;;;17.90;89.10;;;;;;5049209;28;20128;-62
2022/06/01 02:27:04;;;;;;;1.65;1.20;;;17.90;89.20;;;;;;5047352;28;20434;-61
2022/06/01 02:29:37;;;;;;;1.50;1.25;;;17.90;89.20;;;;;;5049965;28;20055;-62
2022/06/01 02:32:06;;;;;;;2.10;1.60;;;17.90;89.30;;;;;;5050484;28;20048;-62
2022/06/01 02:34:33;;;;;;;1.80;1.40;;;17.90;89.40;;;;;;5050873;28;20049;-62
2022/06/01 02:37:04;;;;;;;1.83;1.38;;;17.90;89.50;;;;;;5049809;28;20106;-62
2022/06/01 02:39:31;;;;;;;2.00;1.40;;;17.90;89.50;;;;;;5050041;28;20175;-62
2022/06/01 02:42:28;;;;;;;1.80;1.30;;;17.90;89.60;;;;;;5049030;28;20052;-62
2022/06/01 02:44:58;;;;;;;2.70;1.48;;;17.90;89.60;;;;;;5050647;28;20128;-62
2022/06/01 02:47:24;;;;;;;1.60;1.20;;;17.90;89.70;;;;;;5050326;28;20045;-62
2022/06/01 02:49:50;;;;;;;1.52;1.30;;;17.80;89.70;;;;;;5050511;28;20049;-62
2022/06/01 02:52:16;;;;;;;;;;;17.90;89.80;;;;;;5050462;28;20066;-62
2022/06/01 02:54:41;;;;;;;1.20;1.10;;;17.80;89.80;;;;;;5050190;28;19924;-62
2022/06/01 02:57:07;;;;;;;;;;;17.80;89.80;;;;;;5049070;28;20102;-62
2022/06/01 02:59:33;;;;;;;1.23;1.10;;;17.80;89.80;;;;;;5050299;28;19974;-62
2022/06/01 03:01:59;;;;;;;;;;;17.80;89.80;;;;;;5050811;28;20049;-62
2022/06/01 03:04:26;;;;;;;2.50;1.40;;;17.80;89.90;;;;;;5050131;28;20454;-62
2022/06/01 03:06:53;;;;;;;1.90;1.35;;;17.80;89.80;;;;;;5049996;28;20056;-62
2022/06/01 03:09:18;;;;;;;2.72;1.38;;;17.80;89.90;;;;;;5047457;28;20092;-62
2022/06/01 03:11:44;;;;;;;;;;;17.80;89.90;;;;;;5049129;28;20084;-62
2022/06/01 03:14:10;;;;;;;1.58;1.33;;;17.80;90.00;;;;;;5049602;28;20282;-62
2022/06/01 03:16:36;;;;;;;;;;;17.80;90.00;;;;;;5050322;28;20486;-61
2022/06/01 03:19:02;;;;;;;2.63;1.60;;;17.80;90.10;;;;;;5049716;28;19925;-62
2022/06/01 03:21:28;;;;;;;;;;;17.80;90.00;;;;;;5032340;28;20044;-62
2022/06/01 03:23:55;;;;;;;2.13;1.40;;;17.80;90.10;;;;;;5049734;28;20370;-62
2022/06/01 03:26:22;;;;;;;2.30;1.40;;;17.80;90.00;;;;;;5048522;28;20053;-62
2022/06/01 03:28:48;;;;;;;2.58;1.40;;;17.80;90.10;;;;;;5047802;28;20526;-62
2022/06/01 03:31:14;;;;;;;1.95;1.20;;;17.80;90.10;;;;;;5049396;28;20111;-62
2022/06/01 03:33:40;;;;;;;;;;;17.80;90.10;;;;;;5050162;28;20648;-61
2022/06/01 03:36:06;;;;;;;1.35;1.25;;;17.80;90.20;;;;;;5049220;28;19925;-62
2022/06/01 03:38:32;;;;;;;3.35;1.60;;;17.80;90.20;;;;;;5049882;28;20127;-62
2022/06/01 03:40:58;;;;;;;1.55;1.30;;;17.80;90.20;;;;;;5053877;28;20044;-62
2022/06/01 03:43:24;;;;;;;;;;;17.80;90.30;;;;;;5069356;28;20634;-62
2022/06/01 03:45:56;;;;;;;2.55;1.40;;;17.80;90.30;;;;;;5070065;28;20293;-61
2022/06/01 03:48:23;;;;;;;2.28;1.67;;;17.80;90.30;;;;;;5058867;28;20082;-62
2022/06/01 03:50:49;;;;;;;2.55;1.33;;;17.70;90.30;;;;;;5049683;28;20066;-62
2022/06/01 03:53:15;;;;;;;;;;;17.80;90.40;;;;;;5049491;28;20440;-62
2022/06/01 03:55:42;;;;;;;1.92;1.35;;;17.80;90.40;;;;;;5048100;28;19925;-62
2022/06/01 03:58:16;;;;;;;2.08;1.40;;;17.80;90.40;;;;;;5048715;28;20041;-62
2022/06/01 04:00:42;;;;;;;1.38;1.27;;;17.80;90.40;;;;;;5049801;28;20053;-61
2022/06/01 04:03:08;;;;;;;1.20;1.10;;;17.70;90.40;;;;;;5048268;28;20060;-62
2022/06/01 04:05:34;;;;;;;;;;;17.70;90.50;;;;;;5050059;28;20053;-62
2022/06/01 04:08:01;;;;;;;1.60;1.25;;;17.70;90.50;;;;;;5049046;28;19928;-62
2022/06/01 04:10:27;;;;;;;1.92;1.30;;;17.70;90.50;;;;;;5047294;28;20045;-62
2022/06/01 04:12:53;;;;;;;;;;;17.70;90.50;;;;;;5049587;28;20047;-61
2022/06/01 04:15:19;;;;;;;1.70;1.30;;;17.70;90.60;;;;;;5049109;28;19921;-62
2022/06/01 04:17:45;;;;;;;;;;;17.70;90.60;;;;;;5050144;28;20044;-61
2022/06/01 04:20:11;;;;;;;4.05;1.65;;;17.70;90.90;;;;;;5048976;28;19920;-62
2022/06/01 04:22:40;;;;;;;1.65;1.30;;;17.70;90.60;;;;;;5049533;28;20049;-61
2022/06/01 04:25:06;;;;;;;1.20;1.13;;;17.70;90.60;;;;;;5049018;28;20136;-62
2022/06/01 04:27:32;;;;;;;3.00;1.75;;;17.70;90.60;;;;;;5048097;28;20048;-62
2022/06/01 04:29:58;;;;;;;;;;;17.70;90.70;;;;;;5049473;28;20050;-61
2022/06/01 04:32:26;;;;;;;2.00;1.52;;;18.10;90.80;;;;;;5048815;28;19920;-63
2022/06/01 04:34:51;;;;;;;2.28;1.35;;;17.70;90.70;;;;;;5049051;28;20092;-62
2022/06/01 04:37:17;;;;;;;;;;;17.70;90.70;;;;;;5049243;28;20083;-62
2022/06/01 04:39:43;;;;;;;2.08;1.48;;;17.70;90.70;;;;;;5052427;28;19925;-61
2022/06/01 04:42:08;;;;;;;2.70;1.30;;;17.70;90.70;;;;;;5051552;28;20085;-61
2022/06/01 04:44:34;;;;;;;;;;;17.70;90.70;;;;;;5053061;28;20478;-62
2022/06/01 04:47:00;;;;;;;1.88;1.45;;;17.70;90.80;;;;;;5053071;28;19970;-61
2022/06/01 04:49:25;;;;;;;1.80;1.50;;;17.70;90.70;;;;;;5052639;28;20041;-62
2022/06/01 04:51:51;;;;;;;;;;;17.70;90.70;;;;;;5053038;28;20045;-61
2022/06/01 04:54:16;;;;;;;2.38;1.42;;;17.80;90.80;;;;;;5051663;28;19921;-62
2022/06/01 04:56:42;;;;;;;;;;;17.70;90.80;;;;;;5051968;28;20486;-61
2022/06/01 04:59:09;;;;;;;2.13;1.63;;;17.70;90.80;;;;;;5051431;28;19940;-61
2022/06/01 05:01:35;;;;;;;1.60;1.33;;;17.70;90.80;;;;;;5051849;28;20048;-62
2022/06/01 05:04:00;;;;;;;;;;;17.70;90.80;;;;;;5051570;28;20118;-61
2022/06/01 05:06:26;;;;;;;2.63;1.70;;;17.70;90.90;;;;;;5066233;28;19982;-62
2022/06/01 05:08:52;;;;;;;;;;;17.70;90.80;;;;;;5051140;28;20049;-61
2022/06/01 05:11:17;;;;;;;1.30;1.20;;;17.70;90.90;;;;;;5050975;28;20366;-62
2022/06/01 05:13:43;;;;;;;1.58;1.30;;;17.70;90.90;;;;;;5051957;28;20041;-61
2022/06/01 05:16:09;;;;;;;2.15;1.50;;;17.70;90.90;;;;;;5052557;28;20110;-61
2022/06/01 05:18:34;;;;;;;;;;;17.70;90.90;;;;;;5051588;28;20049;-62
2022/06/01 05:21:00;;;;;;;1.85;1.40;;;17.70;91.00;;;;;;5051295;28;19924;-61
2022/06/01 05:23:26;;;;;;;;;;;17.70;90.90;;;;;;5052009;28;20218;-62
2022/06/01 05:25:53;;;;;;;2.40;1.30;;;17.70;91.00;;;;;;5050917;28;19933;-62
2022/06/01 05:28:22;;;;;;;1.75;1.60;;;17.70;91.00;;;;;;5051035;28;20049;-61
2022/06/01 05:30:47;;;;;;;2.75;1.50;;;17.70;91.00;;;;;;5051667;28;20053;-62
2022/06/01 05:33:13;;;;;;;;;;;17.80;91.10;;;;;;5052485;28;20065;-61
2022/06/01 05:35:39;;;;;;;1.98;1.48;;;17.70;91.10;;;;;;5051563;28;19928;-62
2022/06/01 05:38:05;;;;;;;1.55;1.33;;;17.70;91.10;;;;;;5051930;28;20479;-61
2022/06/01 05:40:30;;;;;;;;;;;17.70;91.10;;;;;;5048889;28;20064;-62
2022/06/01 05:43:00;;;;;;;2.90;1.60;;;17.70;91.20;;;;;;5051094;28;19921;-61
2022/06/01 05:45:26;;;;;;;2.35;1.50;;;17.70;91.40;;;;;;5051451;28;20056;-61
2022/06/01 05:47:52;;;;;;;1.92;1.30;;;17.70;91.10;;;;;;5051907;28;20120;-61
2022/06/01 05:50:17;;;;;;;;;;;17.70;91.20;;;;;;5051593;28;20041;-61
2022/06/01 05:52:43;;;;;;;1.85;1.40;;;17.70;91.20;;;;;;5051208;28;20393;-61
2022/06/01 05:55:10;;;;;;;;;;;17.70;91.20;;;;;;5051344;28;20045;-61
2022/06/01 05:57:35;;;;;;;1.83;1.40;;;17.70;91.20;;;;;;5050211;28;19928;-61
2022/06/01 06:00:05;;;;;;;;;;;17.70;91.20;;;;;;5051442;28;20033;-61
2022/06/01 06:02:31;;;;;;;2.33;1.67;;;17.70;91.30;;;;;;5050894;28;19921;-62
2022/06/01 06:04:56;;;;;;;;;;;17.70;91.20;;;;;;5051430;28;20045;-62
2022/06/01 06:07:22;;;;;;;2.63;1.67;;;17.70;91.30;;;;;;5050639;28;19921;-62
2022/06/01 06:09:47;;;;;;;2.28;1.80;;;17.70;91.20;;;;;;5049640;28;20048;-62
2022/06/01 06:12:13;;;;;;;2.08;1.65;;;17.70;91.30;;;;;;5049871;28;20167;-62
2022/06/01 06:14:39;;;;;;;;;;;17.70;91.30;;;;;;5051191;28;20123;-62
2022/06/01 06:17:05;;;;;;;2.35;1.50;;;17.70;91.30;;;;;;5050053;28;20047;-61
2022/06/01 06:19:30;;;;;;;;;;;17.70;91.30;;;;;;5051329;28;20052;-62
2022/06/01 06:21:56;;;;;;;2.38;1.50;;;17.70;91.20;;;;;;5050395;28;19921;-61
2022/06/01 06:24:22;;;;;;;;;;;17.70;91.20;;;;;;5048525;28;20053;-62
2022/06/01 06:26:48;;;;;;;2.80;1.48;;;17.80;91.30;;;;;;5049176;28;19925;-61
2022/06/01 06:29:17;;;;;;;2.53;1.58;;;17.80;91.20;;;;;;5050322;28;20076;-61
2022/06/01 06:31:43;;;;;;;2.17;1.70;;;17.80;91.20;;;;;;5049163;28;20080;-61
2022/06/01 06:34:09;;;;;;;2.05;1.60;;;17.80;91.20;;;;;;5050245;28;20087;-61
2022/06/01 06:36:34;;;;;;;;;;;17.80;91.20;;;;;;5050112;28;20041;-61
2022/06/01 06:39:00;;;;;;;2.40;1.33;;;17.80;91.20;;;;;;5050068;28;19924;-61
2022/06/01 06:41:26;;;;;;;;;;;17.80;91.20;;;;;;5050515;28;20037;-62
2022/06/01 06:43:52;;;;;;;1.90;1.48;;;17.80;91.20;;;;;;5050951;28;20358;-61
2022/06/01 06:46:20;;;;;;;1.67;1.30;;;17.80;91.20;;;;;;5049616;28;20052;-62
2022/06/01 06:48:50;;;;;;;2.92;1.70;;;17.80;91.20;;;;;;5051072;28;20048;-61
2022/06/01 06:51:18;;;;;;;3.30;1.80;;;17.80;91.20;;;;;;5049902;28;20088;-61
2022/06/01 06:53:44;;;;;;;2.25;1.40;;;17.80;91.20;;;;;;5050447;28;20040;-61
2022/06/01 06:56:12;;;;;;;2.80;1.60;;;17.80;91.20;;;;;;5048952;28;20060;-61
2022/06/01 06:58:37;;;;;;;1.67;1.15;;;17.80;91.20;;;;;;5049803;28;20194;-61
2022/06/01 07:01:03;;;;;;;;;;;17.80;91.20;;;;;;5051133;28;20471;-61
2022/06/01 07:03:29;;;;;;;1.67;1.20;;;17.80;91.20;;;;;;5047185;28;19921;-61
2022/06/01 07:06:13;;;;;;;;;;;17.80;91.20;;;;;;5050321;28;20041;-61
2022/06/01 07:08:49;;;;;;;1.40;1.30;;;17.90;91.20;;;;;;5048668;28;20162;-61
2022/06/01 07:11:17;;;;;;;2.22;1.50;;;17.80;91.20;;;;;;5047504;28;20072;-61
2022/06/01 07:13:43;;;;;;;2.50;1.67;;;17.90;91.20;;;;;;5047961;28;20045;-62
2022/06/01 07:16:15;;;;;;;3.58;1.40;;;17.90;91.20;;;;;;5046136;28;20094;-61
2022/06/01 07:18:43;;;;;;;1.92;1.58;;;17.80;91.20;;;;;;5048106;28;20049;-61
2022/06/01 07:21:09;;;;;;;2.90;1.52;;;17.80;91.20;;;;;;5048507;28;20091;-61
2022/06/01 07:23:37;;;;;;;2.17;1.50;;;17.80;91.20;;;;;;5047948;28;20127;-61
2022/06/01 07:26:05;;;;;;;2.53;1.40;;;17.90;91.20;;;;;;5046544;28;20041;-61
2022/06/01 07:28:31;;;;;;;1.92;1.45;;;17.80;91.20;;;;;;5046752;28;20048;-62
2022/06/01 07:30:57;;;;;;;;;;;17.80;91.20;;;;;;5047789;28;20560;-62
2022/06/01 07:33:25;;;;;;;2.35;1.40;;;17.80;91.20;;;;;;5047989;28;20282;-61
2022/06/01 07:35:51;;;;;;;3.78;1.50;;;17.80;91.20;;;;;;5048388;28;20502;-61
2022/06/01 07:43:45;;;;;;;1.55;1.40;;;17.80;91.20;;;;;;5047442;28;20064;-61
2022/06/01 07:46:11;;;;;;;;;;;17.80;91.20;;;;;;5048830;28;20041;-61
2022/06/01 07:48:38;;;;;;;9.15;3.63;;;17.80;91.20;;;;;;5048293;28;20502;-61
2022/06/01 07:51:05;;;;;;;7.78;2.88;;;17.90;91.10;;;;;;5049578;28;20056;-61
2022/06/01 07:53:30;;;;;;;5.80;2.88;;;17.80;91.00;;;;;;5047978;28;20515;-61
2022/06/01 07:55:56;;;;;;;;;;;17.80;91.00;;;;;;5048638;28;20175;-61
2022/06/01 07:58:21;;;;;;;7.18;2.50;;;17.80;90.90;;;;;;5047430;28;20285;-61
2022/06/01 08:00:48;;;;;;;;;;;17.80;91.00;;;;;;5048610;28;20214;-61
2022/06/01 08:03:15;;;;;;;3.90;1.90;;;17.80;91.00;;;;;;5050125;28;20011;-61
2022/06/01 08:05:41;;;;;;;3.88;2.00;;;17.80;91.00;;;;;;5049137;28;20178;-61
2022/06/01 08:08:07;;;;;;;;;;;17.80;91.00;;;;;;5050281;28;20060;-60
2022/06/01 08:10:33;;;;;;;4.07;1.77;;;17.80;91.00;;;;;;5046547;28;19920;-61
2022/06/01 08:13:09;;;;;;;2.65;2.03;;;17.80;91.00;;;;;;5049935;28;20111;-61
2022/06/01 08:15:39;;;;;;;2.38;1.83;;;17.80;91.00;;;;;;5053172;28;20045;-61
2022/06/01 08:18:05;;;;;;;5.07;1.80;;;17.80;91.00;;;;;;5053060;28;20048;-61
2022/06/01 08:20:31;;;;;;;;;;;17.90;91.00;;;;;;5051944;28;20041;-61
2022/06/01 08:22:58;;;;;;;4.03;2.00;;;17.90;91.10;;;;;;5053768;28;19921;-61
2022/06/01 08:25:25;;;;;;;3.95;1.85;;;17.90;91.00;;;;;;5052290;28;20494;-61
2022/06/01 08:27:52;;;;;;;5.22;1.90;;;17.90;91.00;;;;;;5052613;28;20263;-60
2022/06/01 08:30:21;;;;;;;3.63;2.15;;;17.90;91.30;;;;;;5052956;28;20136;-62
2022/06/01 08:32:48;;;;;;;4.75;2.70;;;17.90;91.00;;;;;;5053163;28;20520;-62
2022/06/01 08:35:18;;;;;;;3.47;1.90;;;18.00;91.00;;;;;;5052247;28;20048;-62
2022/06/01 08:37:45;;;;;;;3.10;1.80;;;18.00;91.00;;;;;;5039625;28;20063;-62
2022/06/01 08:40:12;;;;;;;3.13;1.70;;;18.00;91.00;;;;;;5051284;28;20131;-62
2022/06/01 08:42:43;;;;;;;7.57;2.17;;;18.00;91.00;;;;;;5050974;28;20510;-62
2022/06/01 08:45:09;;;;;;;3.28;1.77;;;18.00;91.00;;;;;;5053405;28;20402;-62
2022/06/01 08:47:37;;;;;;;;;;;18.00;91.20;;;;;;5052018;28;20049;-63
2022/06/01 08:50:10;;;;;;;7.30;2.33;;;18.00;91.20;;;;;;5049493;28;19920;-62
2022/06/01 08:52:36;;;;;;;3.70;1.75;;;18.00;91.00;;;;;;5048384;28;20583;-62
2022/06/01 08:55:02;;;;;;;;;;;18.00;90.90;;;;;;5033499;28;20114;-62
2022/06/01 08:58:26;;;;;;;3.00;1.73;;;18.00;90.90;;;;;;5046457;28;19925;-62
2022/06/01 09:01:01;;;;;;;4.82;2.13;;;18.00;90.80;;;;;;5019414;28;20497;-61
2022/06/01 09:03:48;;;;;;;3.45;1.88;;;18.00;90.80;;;;;;5050869;28;20052;-61
2022/06/01 09:06:22;;;;;;;3.17;1.50;;;17.90;91.10;;;;;;5050589;28;20047;-61
2022/06/01 09:09:01;;;;;;;3.80;2.00;;;17.80;91.50;;;;;;5049410;28;20636;-61
2022/06/01 09:11:32;;;;;;;3.47;1.60;;;17.80;92.30;;;;;;5048002;28;20120;-61
2022/06/01 09:14:18;;;;;;;4.35;1.77;;;17.80;93.30;;;;;;5051271;28;20087;-60
2022/06/01 09:16:47;;;;;;;2.63;1.60;;;17.80;94.40;;;;;;5049163;28;20041;-61
2022/06/01 09:22:39;;;;;;;4.97;1.30;;;17.80;95.20;;;;;;5050765;28;20490;-61
2022/06/01 09:25:12;;;;;;;2.05;1.50;;;17.90;95.10;;;;;;5050005;28;20572;-61
2022/06/01 09:28:18;;;;;;;3.53;1.50;;;17.80;95.20;;;;;;5047891;28;20041;-62
2022/06/01 09:30:49;;;;;;;3.17;1.40;;;17.90;95.40;;;;;;5049431;28;20115;-60
2022/06/01 09:33:35;;;;;;;3.10;1.50;;;17.90;95.40;;;;;;5049678;28;20083;-60
2022/06/01 09:36:15;;;;;;;3.45;1.40;;;17.90;95.70;;;;;;5048909;28;20036;-60
2022/06/01 09:38:49;;;;;;;2.28;1.23;;;18.00;95.90;;;;;;5046616;28;20036;-60
2022/06/01 09:41:26;;;;;;;1.80;1.13;;;18.00;96.40;;;;;;5047208;28;20056;-60
2022/06/01 09:43:59;;;;;;;3.00;1.30;;;18.00;96.70;;;;;;5050667;28;20128;-60
2022/06/01 09:46:35;;;;;;;2.80;1.20;;;18.00;97.00;;;;;;5052434;28;20088;-60
2022/06/01 09:49:05;;;;;;;3.08;1.27;;;18.00;97.20;;;;;;5050783;28;20480;-60
2022/06/01 09:51:34;;;;;;;2.83;1.30;;;18.00;97.50;;;;;;5051989;28;20187;-60
2022/06/01 09:54:19;;;;;;;2.13;1.40;;;18.00;97.90;;;;;;5051362;28;20124;-60
2022/06/01 09:56:48;;;;;;;1.40;0.98;;;18.10;98.50;;;;;;5050485;28;20060;-60
2022/06/01 10:08:13;;;;;;;2.65;1.33;;;18.10;99.30;;;;;;5053661;28;20053;-60
2022/06/01 10:10:40;;;;;;;3.72;1.77;;;18.20;99.70;;;;;;5050424;28;20049;-60
2022/06/01 10:13:06;;;;;;;1.60;1.10;;;18.20;99.90;;;;;;5050679;28;20052;-60
2022/06/01 10:15:46;;;;;;;1.83;1.27;;;18.20;99.90;;;;;;5052135;28;20045;-60
2022/06/01 10:18:26;;;;;;;1.90;1.15;;;18.20;99.90;;;;;;5052060;28;20084;-60
2022/06/01 10:20:57;;;;;;;2.85;1.30;;;18.20;99.90;;;;;;5051149;28;20044;-60
2022/06/01 10:23:35;;;;;;;2.60;1.20;;;18.20;99.90;;;;;;5067295;28;20537;-60
2022/06/01 10:26:08;;;;;;;1.02;0.93;;;18.20;99.90;;;;;;5039225;28;20049;-60
2022/06/01 10:28:40;;;;;;;2.72;1.10;;;18.30;99.90;;;;;;5042576;28;20079;-60
2022/06/01 10:31:33;;;;;;;2.10;1.13;;;18.30;99.90;;;;;;5050605;28;20052;-60
2022/06/01 10:34:27;;;;;;;1.30;1.17;;;18.30;99.90;;;;;;5047729;28;20057;-61
2022/06/01 10:37:10;;;;;;;3.22;1.40;;;18.30;99.90;;;;;;5050337;28;20048;-60
2022/06/01 10:39:54;;;;;;;1.77;1.20;;;18.30;99.90;;;;;;5050089;28;20056;-60
2022/06/01 10:42:22;;;;;;;1.38;1.00;;;18.30;99.90;;;;;;5049092;28;20732;-60
2022/06/01 10:45:13;;;;;;;1.55;1.20;;;18.30;99.90;;;;;;5047177;28;20049;-61
2022/06/01 10:47:59;;;;;;;2.47;1.45;;;18.30;99.90;;;;;;5049951;28;20037;-60
2022/06/01 10:50:32;;;;;;;1.45;1.30;;;18.30;99.90;;;;;;5050873;28;20103;-60
2022/06/01 10:53:22;;;;;;;2.55;1.27;;;18.30;99.90;;;;;;5036524;28;20043;-60
2022/06/01 10:55:48;;;;;;;1.48;1.10;;;18.30;99.90;;;;;;5048908;28;20478;-62
2022/06/01 10:58:24;;;;;;;1.60;1.20;;;18.30;99.90;;;;;;5048890;28;20159;-60
2022/06/01 11:01:15;;;;;;;1.58;1.10;;;18.40;99.90;;;;;;5048914;28;20642;-61
2022/06/01 11:04:03;;;;;;;2.10;0.93;;;18.40;99.90;;;;;;5050912;28;20571;-60
2022/06/01 11:06:29;;;;;;;2.13;1.45;;;18.30;99.90;;;;;;5049442;28;20041;-61
2022/06/01 11:09:03;;;;;;;;;;;18.40;99.90;;;;;;5047864;28;20037;-61
2022/06/01 11:11:45;;;;;;;1.50;1.10;;;18.30;99.90;;;;;;5060603;28;20258;-61
2022/06/01 11:14:35;;;;;;;2.97;1.52;;;18.40;99.90;;;;;;5047245;28;20132;-60
2022/06/01 11:17:24;;;;;;;1.75;1.15;;;18.30;99.90;;;;;;5049112;28;20064;-60
2022/06/01 11:19:56;;;;;;;1.92;1.20;;;18.40;99.90;;;;;;5049797;28;20426;-62
2022/06/01 11:22:44;;;;;;;1.23;1.13;;;18.40;99.90;;;;;;5049876;28;20131;-60
2022/06/01 11:25:23;;;;;;;1.15;0.90;;;18.40;99.90;;;;;;5048397;28;20041;-60
2022/06/01 11:28:27;;;;;;;1.40;1.05;;;18.30;99.90;;;;;;5048414;28;20091;-58
2022/06/01 11:31:11;;;;;;;1.70;1.10;;;18.40;99.90;;;;;;5026584;28;20637;-60
2022/06/01 11:33:44;;;;;;;1.27;1.10;;;18.40;99.90;;;;;;5026028;28;20053;-60
2022/06/01 11:36:24;;;;;;;2.10;1.05;;;18.40;99.90;;;;;;5041475;28;20091;-60
2022/06/01 11:39:30;;;;;;;1.27;0.98;;;18.40;99.90;;;;;;5049576;28;20047;-60
2022/06/01 11:42:05;;;;;;;2.00;1.15;;;18.40;99.90;;;;;;5047906;28;20044;-60
2022/06/01 11:44:37;;;;;;;1.58;1.00;;;18.40;99.90;;;;;;5050207;28;20059;-60
2022/06/01 11:47:14;;;;;;;1.60;1.00;;;18.40;99.90;;;;;;5051163;28;20044;-60
2022/06/01 11:49:42;;;;;;;1.95;1.10;;;18.40;99.90;;;;;;5053782;28;20128;-60
2022/06/01 11:52:20;;;;;;;2.17;1.10;;;18.40;99.90;;;;;;5051312;28;20048;-60
2022/06/01 11:54:56;;;;;;;1.10;1.00;;;18.40;99.90;;;;;;5041946;28;20057;-60
2022/06/01 11:57:37;;;;;;;1.07;1.00;;;18.30;99.90;;;;;;5054168;28;20114;-60
2022/06/01 12:00:13;;;;;;;1.55;1.00;;;18.30;99.90;;;;;;5052364;28;20124;-60
2022/06/01 12:02:44;;;;;;;0.98;0.82;;;18.30;99.90;;;;;;5053629;28;20037;-61
2022/06/01 12:05:30;;;;;;;1.58;1.02;;;18.30;99.90;;;;;;5052994;28;20131;-59
2022/06/01 12:08:23;;;;;;;1.73;1.10;;;18.30;99.90;;;;;;5053867;28;20049;-62
2022/06/01 12:10:53;;;;;;;4.07;1.30;;;18.30;99.90;;;;;;5044034;28;20083;-61
2022/06/01 12:13:30;;;;;;;2.38;1.40;;;18.30;99.90;;;;;;5032894;28;20498;-62
2022/06/01 12:16:28;;;;;;;4.13;1.30;;;18.20;99.90;;;;;;5042077;28;20049;-61
2022/06/01 12:19:01;;;;;;;1.25;1.00;;;18.20;99.90;;;;;;5048876;28;20093;-61
2022/06/01 12:21:29;;;;;;;2.90;1.20;;;18.20;99.90;;;;;;5033950;28;20052;-61
2022/06/01 12:29:39;;;;;;;1.75;1.30;;;18.20;99.90;;;;;;5053180;28;20052;-60
2022/06/01 12:32:08;;;;;;;3.35;1.40;;;18.20;99.90;;;;;;5052737;28;20084;-60
2022/06/01 12:35:25;;;;;;;2.90;1.20;;;18.10;99.90;;;;;;5052173;28;20138;-60
2022/06/01 12:37:58;;;;;;;1.27;1.17;;;18.20;99.90;;;;;;5029053;28;20073;-60
2022/06/01 12:40:25;;;;;;;3.03;1.13;;;18.20;99.90;;;;;;5037686;28;20776;-61
2022/06/01 12:42:58;;;;;;;7.95;1.83;;;18.30;99.90;;;;;;5050583;28;20052;-59
2022/06/01 12:45:36;;;;;;;3.63;1.35;;;18.30;99.90;;;;;;5040983;28;20562;-58
2022/06/01 12:48:07;;;;;;;2.05;1.40;;;18.40;99.90;;;;;;5050623;28;20077;-59
2022/06/01 12:50:56;;;;;;;2.53;1.20;;;18.40;99.90;;;;;;5051597;28;20041;-60
2022/06/01 12:53:23;;;;;;;6.20;1.45;;;18.40;99.90;;;;;;5052758;28;20522;-59
2022/06/01 12:56:09;;;;;;;2.72;1.35;;;18.50;99.90;;;;;;5051675;28;20044;-59
2022/06/01 12:58:36;;;;;;;1.67;1.07;;;18.50;99.90;;;;;;5041138;28;20049;-59
2022/06/01 13:01:03;;;;;;;1.98;1.10;;;18.50;99.90;;;;;;5031777;28;20073;-60
2022/06/01 13:03:33;;;;;;;3.33;1.33;;;18.60;99.90;;;;;;5033338;28;20449;-59
2022/06/01 13:06:02;;;;;;;4.32;1.25;;;18.60;99.90;;;;;;5051332;28;20124;-60
2022/06/01 13:08:33;;;;;;;3.25;1.17;;;18.60;99.90;;;;;;5051980;28;20040;-59
2022/06/01 13:11:18;;;;;;;1.55;1.00;;;18.60;99.90;;;;;;5051116;28;20130;-59
2022/06/01 13:13:44;;;;;;;1.08;0.98;;;18.60;99.90;;;;;;5051003;28;20052;-59
2022/06/01 13:16:10;;;;;;;2.25;1.52;;;18.60;99.90;;;;;;5052514;28;20052;-59
2022/06/01 13:18:42;;;;;;;;;;;18.60;99.90;;;;;;5053424;28;20417;-59
2022/06/01 13:21:21;;;;;;;6.05;1.00;;;18.60;99.90;;;;;;5051200;28;19929;-59
2022/06/01 13:24:03;;;;;;;2.17;1.35;;;18.60;99.90;;;;;;5051129;28;20665;-59
2022/06/01 13:26:33;;;;;;;1.10;1.00;;;18.70;99.90;;;;;;5039196;28;20063;-59
2022/06/01 13:29:19;;;;;;;0.90;0.90;;;18.60;99.90;;;;;;5036006;28;20115;-59
2022/06/01 13:31:57;;;;;;;3.83;1.45;;;18.70;99.90;;;;;;5045719;28;20049;-59
2022/06/01 13:34:30;;;;;;;1.60;1.00;;;18.60;99.90;;;;;;5046518;28;20083;-59
2022/06/01 13:37:08;;;;;;;1.08;0.98;;;18.60;99.90;;;;;;5051831;28;20051;-59
2022/06/01 13:39:40;;;;;;;2.35;1.25;;;18.70;99.90;;;;;;5038924;28;20039;-59
2022/06/01 13:42:06;;;;;;;1.05;0.90;;;18.60;99.90;;;;;;5050037;28;20048;-60
2022/06/01 13:44:51;;;;;;;3.30;1.17;;;18.60;99.90;;;;;;5052066;28;20106;-59
2022/06/01 13:47:22;;;;;;;1.70;1.10;;;18.60;99.90;;;;;;5051955;28;20405;-59
2022/06/01 13:49:51;;;;;;;1.67;1.17;;;18.50;99.90;;;;;;5055291;28;20049;-60
2022/06/01 13:52:18;;;;;;;2.50;1.30;;;18.50;99.90;;;;;;5043166;28;20053;-59